Currituck, NC (27929)

12:14 PM EDT on July 06, 2015 (GMT -0400)
APRSWXNET | | Change Station
CLOSE
Current Station
Personal Weather Station
Location: Moyock, NC
Elevation: 6 ft
Nearby Weather Stations

Elev 6 ft 36.45 °N, 76.08 °W | Updated 47 minutes ago

Scattered Clouds
Scattered Clouds
85 °F
Feels Like 95 °F
N
4
Wind Variable Wind from SSW
Gusts 9.0 mph

Today
High -- | Low -- °F
--% Chance of Precip.
Yesterday
High -- | Low -- °F
Precip. -- in
5:52 AM 8:25 PM
Waning Gibbous, 74% visible
Pressure 30.15 in
Visibility 10.0 miles
Clouds Scattered Clouds 2700 ft
Scattered Clouds 3300 ft
Heat Index 95 °F
Dew Point 76 °F
Humidity 75%
Rainfall in
Snow Depth Not available.
UV 9 out of 12
Pollen 1.80 out of 12
Air Quality Not available.
Flu Activity Not available.
METAR KONX 061555Z AUTO 18004KT 10SM SCT027 SCT033 30/22 A3015 RMK AO2 T03000222

More Conditions Fewer Conditions

Pressure 30.15 in
Visibility 10.0 miles
Clouds Scattered Clouds 2700 ft
Scattered Clouds 3300 ft
Heat Index 95 °F
Dew Point 76 °F
Humidity 75%
Rainfall in
Snow Depth Not available.
UV 9 out of 12
Pollen 1.80 out of 12
Air Quality Not available.
Flu Activity Not available.
METAR KONX 061555Z AUTO 18004KT 10SM SCT027 SCT033 30/22 A3015 RMK AO2 T03000222

More Conditions Fewer Conditions

10-Day Weather Forecast

×

Almanac

Astronomy

Jul. 06, 2015 Rise Set
Actual Time
Civil Twilight
Nautical Twilight
Astronomical Twilight
Moon
Length of Visible Light
Length of Day
Tomorrow will be .
, % of the Moon is Illuminated

Today's Extremes

State Highs State Lows

Community

WunderPhotos

Upload Photos

1,835,586 photos uploaded!

WunderBlogs® & News

Nearby

Air Quality

  Air Quality AQ Index Pollutant
Not available.

Snow Depth

Station Depth Elevation

Earthquake Activity

City Distance Mag. Time & Date
Minimum magnitude displayed is 2.5.

Coastal Water Temperatures

Place Temperature

Stations

Nearby Weather Stations

Station Location Temp. Windchill Dew Point Humidity Wind Precip. Elev Updated Type